< < Back
Terminal Aerodrome Forecast


Current Version              Previous Versions:   1  2  3  4  5  6  7  8  9  

Terminal Aerodrome Forecast

220
FTUS42 KJAX 261205 AAA
TAFSSI
TAF AMD
KSSI 261205Z 2612/2712 28005KT P6SM VCTS SCT050CB BKN250
     FM261600 35010KT P6SM VCTS SCT030CB BKN050
     FM262000 05012KT P6SM SCT040 BKN250
     FM262200 08008KT P6SM BKN250=

Latest METAR

592
SAUS70 KWBC 261500
MTRSSI
METAR KSSI 261453Z AUTO 26011KT 10SM VCTS FEW047 SCT055 BKN070 28/22
A3012 RMK AO2 LTG DSNT ALQDS SLP200 T02780217 51020


USA.gov is the U.S. government's official web portal to all federal, state and local government web resources and services.